^^
Datos históricos de la estación: Murcia-Puente Tocinos
Diario Informe para Mayo 20, 2019 Unidades:  Ambas    Inglés   Métrico
Diario Semanal Mensual Anual Configurable
  Máximo: Mínimo: Media:
Temperatura: 77.2 °F /  25.1 °C 57.9 °F /  14.4 °C 67.1 °F /  19.5 °C
Punto de rocio: 59.5 °F /  15.3 °C 39.4 °F /  4.1 °C 49.6 °F /  9.8 °C
Humedad: 83% 29% 55%
Velocidad viento: 10.7mph /  17.2km/h - 4.5mph /  7.3km/h
Racha viento: 19mph /  30.6km/h - -
Viento- - ESE
Presión: 29.9 in /  1012.2 hPa 29.8 in /  1009.4 hPa -
Precipitación: 0 in /  0.0 mm    
Historical Graphs
 
 
Tabla de datos para Mayo 20, 2019
Hora Temperatura Punto de rocio Presión Viento Velocidad viento Racha viento Humedad Intensidad lluvia(por hora) Nubes
00:04 66 °F /  18.9 °C 39.7 °F /  4.3 °C 29.8in /  1010.3hPa NNW 2mph /  3.2km/h 2.4mph /  3.9km/h 38% 0in /  0.0mm CLR
00:09 66 °F /  18.9 °C 39.7 °F /  4.3 °C 29.8in /  1010.3hPa NNW 1.8mph /  2.9km/h 2.4mph /  3.9km/h 38% 0in /  0.0mm CLR
00:14 65.8 °F /  18.8 °C 40.8 °F /  4.9 °C 29.8in /  1010.3hPa WNW 1.8mph /  2.9km/h 4.7mph /  7.6km/h 40% 0in /  0.0mm CLR
00:19 65.7 °F /  18.7 °C 40.6 °F /  4.8 °C 29.8in /  1010.3hPa West 2.9mph /  4.7km/h 4.6mph /  7.4km/h 40% 0in /  0.0mm CLR
00:24 65.7 °F /  18.7 °C 39.4 °F /  4.1 °C 29.8in /  1010.3hPa West 2.9mph /  4.7km/h 2.3mph /  3.7km/h 38% 0in /  0.0mm CLR
00:29 65.7 °F /  18.7 °C 40.6 °F /  4.8 °C 29.8in /  1010.3hPa West 2.9mph /  4.7km/h   40% 0in /  0.0mm CLR
00:34 66 °F /  18.9 °C 39.7 °F /  4.3 °C 29.8in /  1010.2hPa West 1.8mph /  2.9km/h 2.9mph /  4.7km/h 38% 0in /  0.0mm CLR
00:39 66.4 °F /  19.1 °C 39.9 °F /  4.4 °C 29.8in /  1010.2hPa West 1.8mph /  2.9km/h 3.5mph /  5.6km/h 38% 0in /  0.0mm CLR
00:44 66.6 °F /  19.2 °C 40.1 °F /  4.5 °C 29.8in /  1010.2hPa West 1.8mph /  2.9km/h 2.3mph /  3.7km/h 38% 0in /  0.0mm CLR
00:49 66.6 °F /  19.2 °C 40.1 °F /  4.5 °C 29.8in /  1010.3hPa West 1.4mph /  2.3km/h   38% 0in /  0.0mm CLR
00:54 66.6 °F /  19.2 °C 41.5 °F /  5.3 °C 29.8in /  1010.3hPa NNW 1.4mph /  2.3km/h 4mph /  6.4km/h 40% 0in /  0.0mm CLR
00:59 66 °F /  18.9 °C 41.5 °F /  5.3 °C 29.8in /  1010.3hPa NW 1.4mph /  2.3km/h 4.6mph /  7.4km/h 41% 0in /  0.0mm CLR
01:04 65.7 °F /  18.7 °C 41.4 °F /  5.2 °C 29.8in /  1010.4hPa NNW 1.8mph /  2.9km/h 2.3mph /  3.7km/h 41% 0in /  0.0mm CLR
01:09 65.1 °F /  18.4 °C 41.4 °F /  5.2 °C 29.8in /  1010.4hPa NNW 1.8mph /  2.9km/h 2.3mph /  3.7km/h 42% 0in /  0.0mm CLR
01:14 64.9 °F /  18.3 °C 41.4 °F /  5.2 °C 29.8in /  1010.4hPa NNW 1.8mph /  2.9km/h   42% 0in /  0.0mm CLR
01:19 64.9 °F /  18.3 °C 41.4 °F /  5.2 °C 29.8in /  1010.3hPa Calm     42% 0in /  0.0mm CLR
01:24 64.8 °F /  18.2 °C 41.2 °F /  5.1 °C 29.8in /  1010.3hPa Calm   5.8mph /  9.3km/h 42% 0in /  0.0mm CLR
01:29 64.8 °F /  18.2 °C 41.2 °F /  5.1 °C 29.8in /  1010.3hPa ENE 1.8mph /  2.9km/h 5.8mph /  9.3km/h 42% 0in /  0.0mm CLR
01:34 64.4 °F /  18.0 °C 41.4 °F /  5.2 °C 29.8in /  1010.3hPa ENE 1.8mph /  2.9km/h 3.5mph /  5.6km/h 43% 0in /  0.0mm CLR
01:39 64.2 °F /  17.9 °C 41.7 °F /  5.4 °C 29.8in /  1010.3hPa NE 2mph /  3.2km/h 2.9mph /  4.7km/h 44% 0in /  0.0mm CLR
01:44 64 °F /  17.8 °C 41.7 °F /  5.4 °C 29.8in /  1010.3hPa NE 2mph /  3.2km/h   44% 0in /  0.0mm CLR
01:49 63.9 °F /  17.7 °C 41.5 °F /  5.3 °C 29.8in /  1010.4hPa NE 1.4mph /  2.3km/h   44% 0in /  0.0mm CLR
01:54 63.9 °F /  17.7 °C 42.1 °F /  5.6 °C 29.8in /  1010.4hPa NE 1.4mph /  2.3km/h   45% 0in /  0.0mm CLR
01:59 63.9 °F /  17.7 °C 43.2 °F /  6.2 °C 29.8in /  1010.4hPa Calm     47% 0in /  0.0mm CLR
02:04 63.7 °F /  17.6 °C 43.5 °F /  6.4 °C 29.8in /  1010.4hPa Calm   2.3mph /  3.7km/h 48% 0in /  0.0mm CLR
02:09 63.7 °F /  17.6 °C 44.2 °F /  6.8 °C 29.8in /  1010.4hPa NE 1.4mph /  2.3km/h 2.3mph /  3.7km/h 49% 0in /  0.0mm CLR
02:14 63.7 °F /  17.6 °C 44.8 °F /  7.1 °C 29.8in /  1010.4hPa NE 1.4mph /  2.3km/h 3.1mph /  5.0km/h 50% 0in /  0.0mm CLR
02:19 63.5 °F /  17.5 °C 44.4 °F /  6.9 °C 29.8in /  1010.3hPa NE 1.4mph /  2.3km/h 2.3mph /  3.7km/h 50% 0in /  0.0mm CLR
02:24 63.3 °F /  17.4 °C 44.4 °F /  6.9 °C 29.8in /  1010.3hPa NE 1.4mph /  2.3km/h   50% 0in /  0.0mm CLR
02:29 63.3 °F /  17.4 °C 46.9 °F /  8.3 °C 29.8in /  1010.3hPa Calm   2.4mph /  3.9km/h 55% 0in /  0.0mm CLR
02:34 63.1 °F /  17.3 °C 47.1 °F /  8.4 °C 29.8in /  1010.1hPa Calm   2.4mph /  3.9km/h 56% 0in /  0.0mm CLR
02:39 63.1 °F /  17.3 °C 49.5 °F /  9.7 °C 29.8in /  1010.1hPa NE 1.8mph /  2.9km/h 2.3mph /  3.7km/h 61% 0in /  0.0mm CLR
02:44 63 °F /  17.2 °C 46.9 °F /  8.3 °C 29.8in /  1010.1hPa NE 1.8mph /  2.9km/h 3.1mph /  5.0km/h 56% 0in /  0.0mm CLR
02:49 62.8 °F /  17.1 °C 45.9 °F /  7.7 °C 29.8in /  1010.0hPa NE 1.4mph /  2.3km/h 2.4mph /  3.9km/h 54% 0in /  0.0mm CLR
02:54 62.4 °F /  16.9 °C 45.1 °F /  7.3 °C 29.8in /  1010.0hPa NE 1.4mph /  2.3km/h 3.1mph /  5.0km/h 53% 0in /  0.0mm CLR
02:59 62.2 °F /  16.8 °C 45 °F /  7.2 °C 29.8in /  1010.0hPa NE 2mph /  3.2km/h 2.3mph /  3.7km/h 53% 0in /  0.0mm CLR
03:04 62.2 °F /  16.8 °C 45.3 °F /  7.4 °C 29.8in /  1009.9hPa NE 2mph /  3.2km/h 2.4mph /  3.9km/h 54% 0in /  0.0mm CLR
03:09 62.2 °F /  16.8 °C 45.9 °F /  7.7 °C 29.8in /  1009.9hPa NE 1.8mph /  2.9km/h 2.9mph /  4.7km/h 55% 0in /  0.0mm CLR
03:14 62.2 °F /  16.8 °C 45.3 °F /  7.4 °C 29.8in /  1009.9hPa NE 1.8mph /  2.9km/h 3.5mph /  5.6km/h 54% 0in /  0.0mm CLR
03:19 62.1 °F /  16.7 °C 43.2 °F /  6.2 °C 29.8in /  1009.8hPa NE 2mph /  3.2km/h 2.3mph /  3.7km/h 50% 0in /  0.0mm CLR
03:24 61.9 °F /  16.6 °C 41.4 °F /  5.2 °C 29.8in /  1009.8hPa NE 2mph /  3.2km/h 3.5mph /  5.6km/h 47% 0in /  0.0mm CLR
03:29 62.1 °F /  16.7 °C 42.1 °F /  5.6 °C 29.8in /  1009.8hPa ENE 1.8mph /  2.9km/h 3.5mph /  5.6km/h 48% 0in /  0.0mm CLR
03:34 62.1 °F /  16.7 °C 42.1 °F /  5.6 °C 29.8in /  1009.9hPa NNE 1.8mph /  2.9km/h 3.5mph /  5.6km/h 48% 0in /  0.0mm CLR
03:39 61.9 °F /  16.6 °C 45 °F /  7.2 °C 29.8in /  1009.9hPa NE 2.4mph /  3.9km/h 4.6mph /  7.4km/h 54% 0in /  0.0mm CLR
03:44 61.9 °F /  16.6 °C 44.1 °F /  6.7 °C 29.8in /  1009.9hPa ENE 2.4mph /  3.9km/h 2.3mph /  3.7km/h 52% 0in /  0.0mm CLR
03:49 61.5 °F /  16.4 °C 41.2 °F /  5.1 °C 29.8in /  1009.7hPa East 2mph /  3.2km/h 4.6mph /  7.4km/h 47% 0in /  0.0mm CLR
03:54 61.3 °F /  16.3 °C 39.7 °F /  4.3 °C 29.8in /  1009.7hPa East 2mph /  3.2km/h 2.4mph /  3.9km/h 45% 0in /  0.0mm CLR
03:59 61.3 °F /  16.3 °C 40.5 °F /  4.7 °C 29.8in /  1009.7hPa East 1.8mph /  2.9km/h 2.3mph /  3.7km/h 46% 0in /  0.0mm CLR
04:04 61.2 °F /  16.2 °C 40.3 °F /  4.6 °C 29.8in /  1009.7hPa East 1.8mph /  2.9km/h   46% 0in /  0.0mm CLR
04:09 61.2 °F /  16.2 °C 40.8 °F /  4.9 °C 29.8in /  1009.7hPa Calm     47% 0in /  0.0mm CLR
04:14 61.3 °F /  16.3 °C 43 °F /  6.1 °C 29.8in /  1009.7hPa Calm   2.3mph /  3.7km/h 51% 0in /  0.0mm CLR
04:19 61.2 °F /  16.2 °C 42.4 °F /  5.8 °C 29.8in /  1009.4hPa Calm   2.3mph /  3.7km/h 50% 0in /  0.0mm CLR
04:24 61 °F /  16.1 °C 42.6 °F /  5.9 °C 29.8in /  1009.4hPa Calm     51% 0in /  0.0mm CLR
04:29 60.6 °F /  15.9 °C 41.4 °F /  5.2 °C 29.8in /  1009.4hPa Calm     49% 0in /  0.0mm CLR
04:34 60.4 °F /  15.8 °C 42.3 °F /  5.7 °C 29.8in /  1009.4hPa Calm     51% 0in /  0.0mm CLR
04:39 60.4 °F /  15.8 °C 43.2 °F /  6.2 °C 29.8in /  1009.4hPa Calm   2.3mph /  3.7km/h 53% 0in /  0.0mm CLR
04:44 60.4 °F /  15.8 °C 43.7 °F /  6.5 °C 29.8in /  1009.4hPa Calm     54% 0in /  0.0mm CLR
04:49 60.6 °F /  15.9 °C 44.4 °F /  6.9 °C 29.8in /  1009.4hPa Calm     55% 0in /  0.0mm CLR
04:54 60.6 °F /  15.9 °C 45.3 °F /  7.4 °C 29.8in /  1009.4hPa Calm   3.5mph /  5.6km/h 57% 0in /  0.0mm CLR
04:59 60.6 °F /  15.9 °C 46.2 °F /  7.9 °C 29.8in /  1009.4hPa West 1.8mph /  2.9km/h 3.1mph /  5.0km/h 59% 0in /  0.0mm CLR
05:04 60.6 °F /  15.9 °C 44.8 °F /  7.1 °C 29.8in /  1009.7hPa SW 1.8mph /  2.9km/h 5.8mph /  9.3km/h 56% 0in /  0.0mm CLR
05:09 60.6 °F /  15.9 °C 44.4 °F /  6.9 °C 29.8in /  1009.7hPa West 2.9mph /  4.7km/h 3.5mph /  5.6km/h 55% 0in /  0.0mm CLR
05:14 60.6 °F /  15.9 °C 44.4 °F /  6.9 °C 29.8in /  1009.7hPa West 2.9mph /  4.7km/h 2.3mph /  3.7km/h 55% 0in /  0.0mm CLR
05:19 60.6 °F /  15.9 °C 43.9 °F /  6.6 °C 29.8in /  1009.6hPa West 1.4mph /  2.3km/h   54% 0in /  0.0mm CLR
05:24 60.6 °F /  15.9 °C 43.9 °F /  6.6 °C 29.8in /  1009.6hPa South 1.4mph /  2.3km/h 3.1mph /  5.0km/h 54% 0in /  0.0mm CLR
05:29 60.4 °F /  15.8 °C 44.2 °F /  6.8 °C 29.8in /  1009.6hPa SSE 1.4mph /  2.3km/h 3.5mph /  5.6km/h 55% 0in /  0.0mm CLR
05:34 60.4 °F /  15.8 °C 44.2 °F /  6.8 °C 29.8in /  1009.6hPa SSE 1.4mph /  2.3km/h 2.9mph /  4.7km/h 55% 0in /  0.0mm CLR
05:39 60.3 °F /  15.7 °C 44.4 °F /  6.9 °C 29.8in /  1009.6hPa SSE 1.8mph /  2.9km/h 2.3mph /  3.7km/h 56% 0in /  0.0mm CLR
05:44 60.1 °F /  15.6 °C 43.9 °F /  6.6 °C 29.8in /  1009.6hPa South 1.8mph /  2.9km/h 8.1mph /  13.0km/h 55% 0in /  0.0mm CLR
05:49 58.8 °F /  14.9 °C 43.2 °F /  6.2 °C 29.8in /  1009.7hPa South 4mph /  6.4km/h 6.9mph /  11.1km/h 56% 0in /  0.0mm CLR
05:54 58.5 °F /  14.7 °C 43.3 °F /  6.3 °C 29.8in /  1009.7hPa SW 4mph /  6.4km/h 5.4mph /  8.7km/h 57% 0in /  0.0mm CLR
05:59 58.5 °F /  14.7 °C 43.3 °F /  6.3 °C 29.8in /  1009.7hPa SW 4.7mph /  7.6km/h 6.9mph /  11.1km/h 57% 0in /  0.0mm CLR
06:04 58.6 °F /  14.8 °C 43.3 °F /  6.3 °C 29.8in /  1009.7hPa SSW 4.7mph /  7.6km/h 6.4mph /  10.3km/h 57% 0in /  0.0mm CLR
06:09 58.6 °F /  14.8 °C 43.3 °F /  6.3 °C 29.8in /  1009.7hPa SSW 5.2mph /  8.4km/h 4.6mph /  7.4km/h 57% 0in /  0.0mm CLR
06:14 58.6 °F /  14.8 °C 43 °F /  6.1 °C 29.8in /  1009.7hPa SSW 5.2mph /  8.4km/h 6.9mph /  11.1km/h 56% 0in /  0.0mm CLR
06:19 58.8 °F /  14.9 °C 43.2 °F /  6.2 °C 29.8in /  1009.8hPa WSW 4.3mph /  6.9km/h 4.6mph /  7.4km/h 56% 0in /  0.0mm CLR
06:24 58.8 °F /  14.9 °C 43.2 °F /  6.2 °C 29.8in /  1009.8hPa SW 4.3mph /  6.9km/h 4.6mph /  7.4km/h 56% 0in /  0.0mm CLR
06:29 59 °F /  15.0 °C 43.3 °F /  6.3 °C 29.8in /  1009.8hPa South 3.1mph /  5.0km/h 5.8mph /  9.3km/h 56% 0in /  0.0mm CLR
06:34 59 °F /  15.0 °C 42.8 °F /  6.0 °C 29.8in /  1009.9hPa SSE 3.1mph /  5.0km/h 4.6mph /  7.4km/h 55% 0in /  0.0mm CLR
06:39 59 °F /  15.0 °C 43.3 °F /  6.3 °C 29.8in /  1009.9hPa SE 3.6mph /  5.8km/h 4.6mph /  7.4km/h 56% 0in /  0.0mm CLR
06:44 59 °F /  15.0 °C 43.3 °F /  6.3 °C 29.8in /  1009.9hPa South 3.6mph /  5.8km/h 4.6mph /  7.4km/h 56% 0in /  0.0mm CLR
06:49 58.8 °F /  14.9 °C 43.2 °F /  6.2 °C 29.8in /  1010.0hPa SE 3.6mph /  5.8km/h 3.5mph /  5.6km/h 56% 0in /  0.0mm CLR
06:54 59 °F /  15.0 °C 43.3 °F /  6.3 °C 29.8in /  1010.0hPa SSE 3.6mph /  5.8km/h 4.6mph /  7.4km/h 56% 0in /  0.0mm CLR
06:59 58.8 °F /  14.9 °C 43.2 °F /  6.2 °C 29.8in /  1010.0hPa SE 2.4mph /  3.9km/h 4.6mph /  7.4km/h 56% 0in /  0.0mm CLR
07:04 58.6 °F /  14.8 °C 43 °F /  6.1 °C 29.8in /  1010.1hPa SE 2.4mph /  3.9km/h 3.5mph /  5.6km/h 56% 0in /  0.0mm CLR
07:09 58.5 °F /  14.7 °C 43.3 °F /  6.3 °C 29.8in /  1010.1hPa SE 2mph /  3.2km/h 2.9mph /  4.7km/h 57% 0in /  0.0mm CLR
07:14 58.3 °F /  14.6 °C 43.2 °F /  6.2 °C 29.8in /  1010.1hPa SE 2mph /  3.2km/h 3.5mph /  5.6km/h 57% 0in /  0.0mm CLR
07:19 58.3 °F /  14.6 °C 43.5 °F /  6.4 °C 29.8in /  1010.3hPa SE 1.8mph /  2.9km/h 4mph /  6.4km/h 58% 0in /  0.0mm CLR
07:24 57.9 °F /  14.4 °C 42.8 °F /  6.0 °C 29.8in /  1010.3hPa SE 1.8mph /  2.9km/h 4.6mph /  7.4km/h 57% 0in /  0.0mm CLR
07:29 57.9 °F /  14.4 °C 43.2 °F /  6.2 °C 29.8in /  1010.3hPa SSE 2.9mph /  4.7km/h 4.6mph /  7.4km/h 58% 0in /  0.0mm CLR
07:34 57.9 °F /  14.4 °C 43.2 °F /  6.2 °C 29.8in /  1010.6hPa SSE 2.9mph /  4.7km/h 3.5mph /  5.6km/h 58% 0in /  0.0mm CLR
07:39 58.3 °F /  14.6 °C 43.2 °F /  6.2 °C 29.8in /  1010.6hPa SE 3.1mph /  5.0km/h 4.6mph /  7.4km/h 57% 0in /  0.0mm CLR
07:44 58.6 °F /  14.8 °C 43.3 °F /  6.3 °C 29.8in /  1010.6hPa SE 3.1mph /  5.0km/h   57% 0in /  0.0mm CLR
07:49 59.2 °F /  15.1 °C 44.4 °F /  6.9 °C 29.9in /  1010.8hPa ENE 1.8mph /  2.9km/h 2.3mph /  3.7km/h 58% 0in /  0.0mm CLR
07:54 59.4 °F /  15.2 °C 44.6 °F /  7.0 °C 29.9in /  1010.8hPa North 1.8mph /  2.9km/h 2.3mph /  3.7km/h 58% 0in /  0.0mm CLR
07:59 59.7 °F /  15.4 °C 45 °F /  7.2 °C 29.9in /  1010.8hPa NNW 1.4mph /  2.3km/h 3.5mph /  5.6km/h 58% 0in /  0.0mm CLR
08:04 59.9 °F /  15.5 °C 45.5 °F /  7.5 °C 29.9in /  1010.9hPa NNW 1.4mph /  2.3km/h 2.3mph /  3.7km/h 59% 0in /  0.0mm CLR
08:09 60.3 °F /  15.7 °C 45.9 °F /  7.7 °C 29.9in /  1010.9hPa NNW 1.8mph /  2.9km/h 1.2mph /  1.9km/h 59% 0in /  0.0mm CLR
08:14 61 °F /  16.1 °C 46 °F /  7.8 °C 29.9in /  1010.9hPa NNW 1.8mph /  2.9km/h   58% 0in /  0.0mm CLR
08:19 61.5 °F /  16.4 °C 45.7 °F /  7.6 °C 29.9in /  1011.1hPa Calm   3.1mph /  5.0km/h 56% 0in /  0.0mm CLR
08:24 61.7 °F /  16.5 °C 45.3 °F /  7.4 °C 29.9in /  1011.1hPa Calm   2.3mph /  3.7km/h 55% 0in /  0.0mm CLR
08:29 62.1 °F /  16.7 °C 45.7 °F /  7.6 °C 29.9in /  1011.1hPa ESE 1.8mph /  2.9km/h 2.9mph /  4.7km/h 55% 0in /  0.0mm CLR
08:34 62.4 °F /  16.9 °C 46 °F /  7.8 °C 29.9in /  1011.0hPa ESE 1.8mph /  2.9km/h 2.3mph /  3.7km/h 55% 0in /  0.0mm CLR
08:39 62.6 °F /  17.0 °C 45.7 °F /  7.6 °C 29.9in /  1011.0hPa SE 1.8mph /  2.9km/h 3.5mph /  5.6km/h 54% 0in /  0.0mm CLR
08:44 63 °F /  17.2 °C 46 °F /  7.8 °C 29.9in /  1011.0hPa SSE 1.8mph /  2.9km/h 4.3mph /  6.9km/h 54% 0in /  0.0mm CLR
08:49 63 °F /  17.2 °C 46 °F /  7.8 °C 29.9in /  1011.2hPa SSW 2mph /  3.2km/h 4mph /  6.4km/h 54% 0in /  0.0mm CLR
08:54 62.8 °F /  17.1 °C 45.9 °F /  7.7 °C 29.9in /  1011.2hPa SSE 2mph /  3.2km/h 3.5mph /  5.6km/h 54% 0in /  0.0mm CLR
08:59 63 °F /  17.2 °C 46 °F /  7.8 °C 29.9in /  1011.2hPa SE 2.4mph /  3.9km/h 4.6mph /  7.4km/h 54% 0in /  0.0mm CLR
09:04 63.1 °F /  17.3 °C 46.2 °F /  7.9 °C 29.9in /  1011.2hPa SSE 2.4mph /  3.9km/h 4.6mph /  7.4km/h 54% 0in /  0.0mm CLR
09:09 63.3 °F /  17.4 °C 46.4 °F /  8.0 °C 29.9in /  1011.2hPa SSE 3.1mph /  5.0km/h 4.6mph /  7.4km/h 54% 0in /  0.0mm CLR
09:14 63.7 °F /  17.6 °C 46.8 °F /  8.2 °C 29.9in /  1011.2hPa SSE 3.1mph /  5.0km/h 4.7mph /  7.6km/h 54% 0in /  0.0mm CLR
09:19 63.9 °F /  17.7 °C 46.9 °F /  8.3 °C 29.9in /  1011.2hPa South 2.9mph /  4.7km/h 4.6mph /  7.4km/h 54% 0in /  0.0mm CLR
09:24 64.2 °F /  17.9 °C 47.7 °F /  8.7 °C 29.9in /  1011.2hPa South 2.9mph /  4.7km/h 3.5mph /  5.6km/h 55% 0in /  0.0mm CLR
09:29 64.8 °F /  18.2 °C 47.7 °F /  8.7 °C 29.9in /  1011.2hPa SSW 2mph /  3.2km/h 5.4mph /  8.7km/h 54% 0in /  0.0mm CLR
09:34 65.1 °F /  18.4 °C 48 °F /  8.9 °C 29.9in /  1011.4hPa SE 2mph /  3.2km/h 5.8mph /  9.3km/h 54% 0in /  0.0mm CLR
09:39 65.1 °F /  18.4 °C 48.6 °F /  9.2 °C 29.9in /  1011.4hPa South 3.1mph /  5.0km/h 5.8mph /  9.3km/h 55% 0in /  0.0mm CLR
09:44 65.1 °F /  18.4 °C 48.6 °F /  9.2 °C 29.9in /  1011.4hPa SSE 3.1mph /  5.0km/h 5.8mph /  9.3km/h 55% 0in /  0.0mm CLR
09:49 65.1 °F /  18.4 °C 48.9 °F /  9.4 °C 29.9in /  1011.5hPa SSE 4.3mph /  6.9km/h 7.4mph /  11.9km/h 56% 0in /  0.0mm CLR
09:54 65.3 °F /  18.5 °C 49.3 °F /  9.6 °C 29.9in /  1011.5hPa SE 4.3mph /  6.9km/h 3.5mph /  5.6km/h 56% 0in /  0.0mm CLR
09:59 65.8 °F /  18.8 °C 49.6 °F /  9.8 °C 29.9in /  1011.5hPa SSW 3.1mph /  5.0km/h 4.6mph /  7.4km/h 56% 0in /  0.0mm CLR
10:04 66 °F /  18.9 °C 49.5 °F /  9.7 °C 29.9in /  1011.5hPa WSW 3.1mph /  5.0km/h 3.6mph /  5.8km/h 55% 0in /  0.0mm CLR
10:09 66.4 °F /  19.1 °C 49.6 °F /  9.8 °C 29.9in /  1011.5hPa SSW 3.1mph /  5.0km/h 4.6mph /  7.4km/h 55% 0in /  0.0mm CLR
10:14 66.7 °F /  19.3 °C 50.2 °F /  10.1 °C 29.9in /  1011.5hPa SSE 3.1mph /  5.0km/h 2.3mph /  3.7km/h 55% 0in /  0.0mm CLR
10:19 67.6 °F /  19.8 °C 50.4 °F /  10.2 °C 29.9in /  1011.5hPa WNW 2mph /  3.2km/h 3.5mph /  5.6km/h 54% 0in /  0.0mm CLR
10:24 68.5 °F /  20.3 °C 50.2 °F /  10.1 °C 29.9in /  1011.5hPa NE 2mph /  3.2km/h 3.5mph /  5.6km/h 52% 0in /  0.0mm CLR
10:29 68.9 °F /  20.5 °C 49.5 °F /  9.7 °C 29.9in /  1011.5hPa NNW 2mph /  3.2km/h 5.8mph /  9.3km/h 50% 0in /  0.0mm CLR
10:34 68.9 °F /  20.5 °C 50 °F /  10.0 °C 29.9in /  1011.4hPa NNE 2mph /  3.2km/h 4.6mph /  7.4km/h 51% 0in /  0.0mm CLR
10:39 68.5 °F /  20.3 °C 49.3 °F /  9.6 °C 29.9in /  1011.4hPa NE 3.6mph /  5.8km/h 6.9mph /  11.1km/h 50% 0in /  0.0mm CLR
10:44 68.2 °F /  20.1 °C 49.5 °F /  9.7 °C 29.9in /  1011.4hPa ENE 3.6mph /  5.8km/h 5.9mph /  9.5km/h 51% 0in /  0.0mm CLR
10:49 68.4 °F /  20.2 °C 50 °F /  10.0 °C 29.9in /  1011.4hPa NE 3.6mph /  5.8km/h 4.6mph /  7.4km/h 52% 0in /  0.0mm CLR
10:54 68.7 °F /  20.4 °C 49.8 °F /  9.9 °C 29.9in /  1011.4hPa East 3.6mph /  5.8km/h 5.8mph /  9.3km/h 51% 0in /  0.0mm CLR
10:59 69.4 °F /  20.8 °C 50 °F /  10.0 °C 29.9in /  1011.4hPa East 2.9mph /  4.7km/h 5.8mph /  9.3km/h 50% 0in /  0.0mm CLR
11:04 69.6 °F /  20.9 °C 49.6 °F /  9.8 °C 29.9in /  1011.5hPa NE 2.9mph /  4.7km/h 5.8mph /  9.3km/h 49% 0in /  0.0mm CLR
11:09 69.6 °F /  20.9 °C 49.1 °F /  9.5 °C 29.9in /  1011.5hPa West 3.1mph /  5.0km/h 3.5mph /  5.6km/h 48% 0in /  0.0mm CLR
11:14 70 °F /  21.1 °C 49.5 °F /  9.7 °C 29.9in /  1011.5hPa NNE 3.1mph /  5.0km/h 5.8mph /  9.3km/h 48% 0in /  0.0mm CLR
11:19 69.8 °F /  21.0 °C 49.3 °F /  9.6 °C 29.9in /  1011.4hPa NE 2.4mph /  3.9km/h 4.3mph /  6.9km/h 48% 0in /  0.0mm CLR
11:24 70 °F /  21.1 °C 49.8 °F /  9.9 °C 29.9in /  1011.4hPa NNE 2.4mph /  3.9km/h 5.4mph /  8.7km/h 49% 0in /  0.0mm CLR
11:29 69.8 °F /  21.0 °C 49.3 °F /  9.6 °C 29.9in /  1011.4hPa ENE 4mph /  6.4km/h 8.1mph /  13.0km/h 48% 0in /  0.0mm CLR
11:34 70 °F /  21.1 °C 49.8 °F /  9.9 °C 29.9in /  1011.3hPa NNE 4mph /  6.4km/h 4.7mph /  7.6km/h 49% 0in /  0.0mm CLR
11:39 70.3 °F /  21.3 °C 49.6 °F /  9.8 °C 29.9in /  1011.3hPa ENE 4mph /  6.4km/h 6.9mph /  11.1km/h 48% 0in /  0.0mm CLR
11:44 70.9 °F /  21.6 °C 49.6 °F /  9.8 °C 29.9in /  1011.3hPa NNE 4mph /  6.4km/h 6.9mph /  11.1km/h 47% 0in /  0.0mm CLR
11:49 71.1 °F /  21.7 °C 49.8 °F /  9.9 °C 29.9in /  1011.3hPa ENE 4.3mph /  6.9km/h 9.2mph /  14.8km/h 47% 0in /  0.0mm CLR
11:54 71.4 °F /  21.9 °C 48.9 °F /  9.4 °C 29.9in /  1011.3hPa ESE 4.3mph /  6.9km/h 5.8mph /  9.3km/h 45% 0in /  0.0mm CLR
11:59 71.4 °F /  21.9 °C 48.4 °F /  9.1 °C 29.9in /  1011.3hPa ENE 4.7mph /  7.6km/h 4.6mph /  7.4km/h 44% 0in /  0.0mm CLR
12:04 71.8 °F /  22.1 °C 49.3 °F /  9.6 °C 29.9in /  1011.2hPa NNW 4.7mph /  7.6km/h 6.9mph /  11.1km/h 45% 0in /  0.0mm CLR
12:09 72.1 °F /  22.3 °C 47.1 °F /  8.4 °C 29.9in /  1011.2hPa ESE 4mph /  6.4km/h 5.8mph /  9.3km/h 41% 0in /  0.0mm CLR
12:14 72.3 °F /  22.4 °C 46 °F /  7.8 °C 29.9in /  1011.2hPa North 4mph /  6.4km/h 5.4mph /  8.7km/h 39% 0in /  0.0mm CLR
12:19 72.7 °F /  22.6 °C 46.2 °F /  7.9 °C 29.9in /  1011.3hPa East 4.3mph /  6.9km/h 5.8mph /  9.3km/h 39% 0in /  0.0mm CLR
12:24 73 °F /  22.8 °C 46.6 °F /  8.1 °C 29.9in /  1011.3hPa ENE 4.3mph /  6.9km/h 4.6mph /  7.4km/h 39% 0in /  0.0mm CLR
12:29 73.2 °F /  22.9 °C 46 °F /  7.8 °C 29.9in /  1011.3hPa West 4.3mph /  6.9km/h 5.8mph /  9.3km/h 38% 0in /  0.0mm CLR
12:34 73.6 °F /  23.1 °C 47.1 °F /  8.4 °C 29.9in /  1011.2hPa NNE 4.3mph /  6.9km/h 9.2mph /  14.8km/h 39% 0in /  0.0mm CLR
12:39 73.2 °F /  22.9 °C 46.8 °F /  8.2 °C 29.9in /  1011.2hPa NE 4.3mph /  6.9km/h 6.9mph /  11.1km/h 39% 0in /  0.0mm CLR
12:44 73.2 °F /  22.9 °C 46 °F /  7.8 °C 29.9in /  1011.2hPa SE 4.3mph /  6.9km/h 9.2mph /  14.8km/h 38% 0in /  0.0mm CLR
12:49 73.6 °F /  23.1 °C 46.4 °F /  8.0 °C 29.9in /  1011.0hPa NE 4.7mph /  7.6km/h 9.2mph /  14.8km/h 38% 0in /  0.0mm CLR
12:54 73.6 °F /  23.1 °C 45 °F /  7.2 °C 29.9in /  1011.0hPa WNW 4.7mph /  7.6km/h 5.8mph /  9.3km/h 36% 0in /  0.0mm CLR
12:59 73.9 °F /  23.3 °C 45.3 °F /  7.4 °C 29.9in /  1011.0hPa ENE 4.7mph /  7.6km/h 7.6mph /  12.2km/h 36% 0in /  0.0mm CLR
13:04 73.9 °F /  23.3 °C 44.4 °F /  6.9 °C 29.9in /  1011.0hPa NE 4.7mph /  7.6km/h 9.2mph /  14.8km/h 35% 0in /  0.0mm CLR
13:09 73.8 °F /  23.2 °C 43 °F /  6.1 °C 29.9in /  1011.0hPa NE 6.2mph /  10.0km/h 6.9mph /  11.1km/h 33% 0in /  0.0mm CLR
13:14 73.9 °F /  23.3 °C 44.4 °F /  6.9 °C 29.9in /  1011.0hPa NNE 6.2mph /  10.0km/h 5.2mph /  8.4km/h 35% 0in /  0.0mm CLR
13:19 74.7 °F /  23.7 °C 42.8 °F /  6.0 °C 29.9in /  1010.8hPa NE 4mph /  6.4km/h 5.8mph /  9.3km/h 32% 0in /  0.0mm CLR
13:24 75 °F /  23.9 °C 42.3 °F /  5.7 °C 29.9in /  1010.8hPa NE 4mph /  6.4km/h 3.5mph /  5.6km/h 31% 0in /  0.0mm CLR
13:29 75.7 °F /  24.3 °C 43.9 °F /  6.6 °C 29.9in /  1010.8hPa East 2.9mph /  4.7km/h 5.8mph /  9.3km/h 32% 0in /  0.0mm CLR
13:34 76.3 °F /  24.6 °C 44.2 °F /  6.8 °C 29.8in /  1010.7hPa NE 2.9mph /  4.7km/h 6.2mph /  10.0km/h 32% 0in /  0.0mm CLR
13:39 76.3 °F /  24.6 °C 45.1 °F /  7.3 °C 29.8in /  1010.7hPa NNE 3.6mph /  5.8km/h 8.5mph /  13.7km/h 33% 0in /  0.0mm CLR
13:44 75.9 °F /  24.4 °C 43.9 °F /  6.6 °C 29.8in /  1010.7hPa NNE 3.6mph /  5.8km/h 3.6mph /  5.8km/h 32% 0in /  0.0mm CLR
13:49 76.5 °F /  24.7 °C 43.5 °F /  6.4 °C 29.8in /  1010.4hPa NNE 4mph /  6.4km/h 9.2mph /  14.8km/h 31% 0in /  0.0mm CLR
13:54 76.6 °F /  24.8 °C 42.1 °F /  5.6 °C 29.8in /  1010.4hPa NNW 4mph /  6.4km/h 6.9mph /  11.1km/h 29% 0in /  0.0mm CLR
13:59 77 °F /  25.0 °C 42.3 °F /  5.7 °C 29.8in /  1010.4hPa ENE 5.9mph /  9.5km/h 10.4mph /  16.7km/h 29% 0in /  0.0mm CLR
14:04 77.2 °F /  25.1 °C 43.3 °F /  6.3 °C 29.8in /  1010.3hPa North 5.9mph /  9.5km/h 5.8mph /  9.3km/h 30% 0in /  0.0mm CLR
14:09 77 °F /  25.0 °C 51.4 °F /  10.8 °C 29.8in /  1010.3hPa NE 5.9mph /  9.5km/h 15mph /  24.1km/h 41% 0in /  0.0mm CLR
14:14 76.3 °F /  24.6 °C 50.7 °F /  10.4 °C 29.8in /  1010.3hPa NNE 5.9mph /  9.5km/h 10.7mph /  17.2km/h 41% 0in /  0.0mm CLR
14:19 75.7 °F /  24.3 °C 50.4 °F /  10.2 °C 29.8in /  1010.4hPa NNE 6.9mph /  11.1km/h 13.7mph /  22.0km/h 41% 0in /  0.0mm CLR
14:24 75.6 °F /  24.2 °C 50.9 °F /  10.5 °C 29.8in /  1010.4hPa East 6.9mph /  11.1km/h 12.7mph /  20.4km/h 42% 0in /  0.0mm CLR
14:29 75.6 °F /  24.2 °C 52.7 °F /  11.5 °C 29.8in /  1010.4hPa East 8.7mph /  14.0km/h 16.1mph /  25.9km/h 45% 0in /  0.0mm CLR
14:34 75.7 °F /  24.3 °C 52.9 °F /  11.6 °C 29.8in /  1010.3hPa NE 8.7mph /  14.0km/h 19mph /  30.6km/h 45% 0in /  0.0mm CLR
14:39 75.6 °F /  24.2 °C 54.5 °F /  12.5 °C 29.8in /  1010.3hPa ESE 8.7mph /  14.0km/h 12.7mph /  20.4km/h 48% 0in /  0.0mm CLR
14:44 74.8 °F /  23.8 °C 53.8 °F /  12.1 °C 29.8in /  1010.3hPa NE 8.7mph /  14.0km/h 13.8mph /  22.2km/h 48% 0in /  0.0mm CLR
14:49 74.3 °F /  23.5 °C 54.5 °F /  12.5 °C 29.8in /  1010.3hPa ESE 9.7mph /  15.6km/h 15mph /  24.1km/h 50% 0in /  0.0mm CLR
14:54 73.9 °F /  23.3 °C 53.1 °F /  11.7 °C 29.8in /  1010.3hPa East 9.7mph /  15.6km/h 12.7mph /  20.4km/h 48% 0in /  0.0mm CLR
14:59 74.1 °F /  23.4 °C 53.2 °F /  11.8 °C 29.8in /  1010.3hPa East 10.7mph /  17.2km/h 12.7mph /  20.4km/h 48% 0in /  0.0mm CLR
15:04 74.7 °F /  23.7 °C 53.1 °F /  11.7 °C 29.8in /  1010.2hPa NW 10.7mph /  17.2km/h 7.6mph /  12.2km/h 47% 0in /  0.0mm CLR
15:09 74.8 °F /  23.8 °C 52.7 °F /  11.5 °C 29.8in /  1010.2hPa NE 7.6mph /  12.2km/h 16.1mph /  25.9km/h 46% 0in /  0.0mm CLR
15:14 74.8 °F /  23.8 °C 51.4 °F /  10.8 °C 29.8in /  1010.2hPa NE 7.6mph /  12.2km/h 15mph /  24.1km/h 44% 0in /  0.0mm CLR
15:19 75 °F /  23.9 °C 52.9 °F /  11.6 °C 29.8in /  1010.2hPa East 10.7mph /  17.2km/h 10.4mph /  16.7km/h 46% 0in /  0.0mm CLR
15:24 75.6 °F /  24.2 °C 53.2 °F /  11.8 °C 29.8in /  1010.2hPa ESE 10.7mph /  17.2km/h 13.5mph /  21.7km/h 46% 0in /  0.0mm CLR
15:29 75 °F /  23.9 °C 52.9 °F /  11.6 °C 29.8in /  1010.2hPa ESE 8.5mph /  13.7km/h 16.1mph /  25.9km/h 46% 0in /  0.0mm CLR
15:34 74.8 °F /  23.8 °C 52.7 °F /  11.5 °C 29.8in /  1010.1hPa East 8.5mph /  13.7km/h 15mph /  24.1km/h 46% 0in /  0.0mm CLR
15:39 74.7 °F /  23.7 °C 52 °F /  11.1 °C 29.8in /  1010.1hPa ESE 10.2mph /  16.4km/h 16.1mph /  25.9km/h 45% 0in /  0.0mm CLR
15:44 74.8 °F /  23.8 °C 52.7 °F /  11.5 °C 29.8in /  1010.1hPa SE 10.2mph /  16.4km/h 13.8mph /  22.2km/h 46% 0in /  0.0mm CLR
15:49 74.5 °F /  23.6 °C 52.3 °F /  11.3 °C 29.8in /  1010.1hPa SE 9.7mph /  15.6km/h 13.8mph /  22.2km/h 46% 0in /  0.0mm CLR
15:54 74.7 °F /  23.7 °C 52 °F /  11.1 °C 29.8in /  1010.1hPa SE 9.7mph /  15.6km/h 8.1mph /  13.0km/h 45% 0in /  0.0mm CLR
15:59 75 °F /  23.9 °C 52.9 °F /  11.6 °C 29.8in /  1010.1hPa ESE 7.6mph /  12.2km/h 11.5mph /  18.5km/h 46% 0in /  0.0mm CLR
16:04 75.2 °F /  24.0 °C 51.3 °F /  10.7 °C 29.8in /  1009.9hPa ESE 7.6mph /  12.2km/h 15mph /  24.1km/h 43% 0in /  0.0mm CLR
16:09 75 °F /  23.9 °C 52.2 °F /  11.2 °C 29.8in /  1009.9hPa East 8.7mph /  14.0km/h 10.7mph /  17.2km/h 45% 0in /  0.0mm CLR
16:14 75 °F /  23.9 °C 51.6 °F /  10.9 °C 29.8in /  1009.9hPa ESE 8.7mph /  14.0km/h 11.5mph /  18.5km/h 44% 0in /  0.0mm CLR
16:19 74.8 °F /  23.8 °C 51.4 °F /  10.8 °C 29.8in /  1009.9hPa East 7.6mph /  12.2km/h 12.7mph /  20.4km/h 44% 0in /  0.0mm CLR
16:24 74.5 °F /  23.6 °C 51.6 °F /  10.9 °C 29.8in /  1009.9hPa ESE 7.6mph /  12.2km/h 12.7mph /  20.4km/h 45% 0in /  0.0mm CLR
16:29 74.8 °F /  23.8 °C 52.2 °F /  11.2 °C 29.8in /  1009.9hPa ESE 7.6mph /  12.2km/h 13.8mph /  22.2km/h 45% 0in /  0.0mm CLR
16:34 74.7 °F /  23.7 °C 52.5 °F /  11.4 °C 29.8in /  1009.9hPa SE 7.6mph /  12.2km/h 12.7mph /  20.4km/h 46% 0in /  0.0mm CLR
16:39 74.5 °F /  23.6 °C 52.9 °F /  11.6 °C 29.8in /  1009.9hPa ESE 8.5mph /  13.7km/h 12.3mph /  19.8km/h 47% 0in /  0.0mm CLR
16:44 74.1 °F /  23.4 °C 53.2 °F /  11.8 °C 29.8in /  1009.9hPa ESE 8.5mph /  13.7km/h 10.4mph /  16.7km/h 48% 0in /  0.0mm CLR
16:49 73.9 °F /  23.3 °C 53.6 °F /  12.0 °C 29.8in /  1010.0hPa East 8.1mph /  13.0km/h 8.1mph /  13.0km/h 49% 0in /  0.0mm CLR
16:54 73.9 °F /  23.3 °C 54.1 °F /  12.3 °C 29.8in /  1010.0hPa ESE 8.1mph /  13.0km/h 10mph /  16.1km/h 50% 0in /  0.0mm CLR
16:59 74.1 °F /  23.4 °C 54.3 °F /  12.4 °C 29.8in /  1010.0hPa SE 6.2mph /  10.0km/h 10.7mph /  17.2km/h 50% 0in /  0.0mm CLR
17:04 73.9 °F /  23.3 °C 54.7 °F /  12.6 °C 29.8in /  1010.0hPa ESE 6.2mph /  10.0km/h 10.4mph /  16.7km/h 51% 0in /  0.0mm CLR
17:09 73.8 °F /  23.2 °C 54.5 °F /  12.5 °C 29.8in /  1010.0hPa East 6.4mph /  10.3km/h 9.2mph /  14.8km/h 51% 0in /  0.0mm CLR
17:14 73.8 °F /  23.2 °C 54.5 °F /  12.5 °C 29.8in /  1010.0hPa ESE 6.4mph /  10.3km/h 9.2mph /  14.8km/h 51% 0in /  0.0mm CLR
17:19 73.6 °F /  23.1 °C 53.8 °F /  12.1 °C 29.8in /  1010.0hPa East 5.4mph /  8.7km/h 8.1mph /  13.0km/h 50% 0in /  0.0mm CLR
17:24 73.6 °F /  23.1 °C 53.8 °F /  12.1 °C 29.8in /  1010.0hPa East 5.4mph /  8.7km/h 8.1mph /  13.0km/h 50% 0in /  0.0mm CLR
17:29 73.4 °F /  23.0 °C 54.7 °F /  12.6 °C 29.8in /  1010.0hPa East 5.2mph /  8.4km/h 5.8mph /  9.3km/h 52% 0in /  0.0mm CLR
17:34 73 °F /  22.8 °C 54.9 °F /  12.7 °C 29.8in /  1009.9hPa ESE 5.2mph /  8.4km/h 8.1mph /  13.0km/h 53% 0in /  0.0mm CLR
17:39 72.9 °F /  22.7 °C 55.2 °F /  12.9 °C 29.8in /  1009.9hPa ESE 5.2mph /  8.4km/h 6.2mph /  10.0km/h 54% 0in /  0.0mm CLR
17:44 72.7 °F /  22.6 °C 56.1 °F /  13.4 °C 29.8in /  1009.9hPa NE 5.2mph /  8.4km/h 12.7mph /  20.4km/h 56% 0in /  0.0mm CLR
17:49 72.1 °F /  22.3 °C 56.1 °F /  13.4 °C 29.8in /  1009.9hPa NNE 6.4mph /  10.3km/h 7.4mph /  11.9km/h 57% 0in /  0.0mm CLR
17:54 71.8 °F /  22.1 °C 56.1 °F /  13.4 °C 29.8in /  1009.9hPa ENE 6.4mph /  10.3km/h 11.5mph /  18.5km/h 58% 0in /  0.0mm CLR
17:59 71.4 °F /  21.9 °C 56.3 °F /  13.5 °C 29.8in /  1009.9hPa NE 7.4mph /  11.9km/h 13.5mph /  21.7km/h 59% 0in /  0.0mm CLR
18:04 71.2 °F /  21.8 °C 56.7 °F /  13.7 °C 29.8in /  1010.0hPa ENE 7.4mph /  11.9km/h 15mph /  24.1km/h 60% 0in /  0.0mm CLR
18:09 71.1 °F /  21.7 °C 56.8 °F /  13.8 °C 29.8in /  1010.0hPa North 8.5mph /  13.7km/h 10.4mph /  16.7km/h 61% 0in /  0.0mm CLR
18:14 70.9 °F /  21.6 °C 56.8 °F /  13.8 °C 29.8in /  1010.0hPa NE 8.5mph /  13.7km/h 9.2mph /  14.8km/h 61% 0in /  0.0mm CLR
18:19 70.9 °F /  21.6 °C 57.2 °F /  14.0 °C 29.8in /  1010.1hPa NE 7.4mph /  11.9km/h 15mph /  24.1km/h 62% 0in /  0.0mm CLR
18:24 70.3 °F /  21.3 °C 57 °F /  13.9 °C 29.8in /  1010.1hPa NE 7.4mph /  11.9km/h 16.1mph /  25.9km/h 63% 0in /  0.0mm CLR
18:29 70.2 °F /  21.2 °C 57.4 °F /  14.1 °C 29.8in /  1010.1hPa ENE 10mph /  16.1km/h 12.7mph /  20.4km/h 64% 0in /  0.0mm CLR
18:34 70.2 °F /  21.2 °C 57.4 °F /  14.1 °C 29.8in /  1010.0hPa NE 10mph /  16.1km/h 11.2mph /  18.0km/h 64% 0in /  0.0mm CLR
18:39 69.8 °F /  21.0 °C 57.6 °F /  14.2 °C 29.8in /  1010.0hPa NE 9.2mph /  14.8km/h 10.4mph /  16.7km/h 65% 0in /  0.0mm CLR
18:44 69.8 °F /  21.0 °C 57.6 °F /  14.2 °C 29.8in /  1010.0hPa NE 9.2mph /  14.8km/h 14mph /  22.5km/h 65% 0in /  0.0mm CLR
18:49 69.6 °F /  20.9 °C 57.4 °F /  14.1 °C 29.8in /  1010.1hPa NE 8.7mph /  14.0km/h 12.7mph /  20.4km/h 65% 0in /  0.0mm CLR
18:54 69.6 °F /  20.9 °C 57.4 °F /  14.1 °C 29.8in /  1010.1hPa NNE 8.7mph /  14.0km/h 10.4mph /  16.7km/h 65% 0in /  0.0mm CLR
18:59 69.4 °F /  20.8 °C 57.2 °F /  14.0 °C 29.8in /  1010.1hPa NNE 8.1mph /  13.0km/h 12.7mph /  20.4km/h 65% 0in /  0.0mm CLR
19:04 69.3 °F /  20.7 °C 57.4 °F /  14.1 °C 29.8in /  1010.1hPa NE 8.1mph /  13.0km/h 13mph /  20.9km/h 66% 0in /  0.0mm CLR
19:09 69.3 °F /  20.7 °C 57.4 °F /  14.1 °C 29.8in /  1010.1hPa NE 7.6mph /  12.2km/h 11.5mph /  18.5km/h 66% 0in /  0.0mm CLR
19:14 69.3 °F /  20.7 °C 57.4 °F /  14.1 °C 29.8in /  1010.1hPa NE 7.6mph /  12.2km/h 13.8mph /  22.2km/h 66% 0in /  0.0mm CLR
19:19 69.1 °F /  20.6 °C 57.7 °F /  14.3 °C 29.8in /  1009.9hPa East 8.5mph /  13.7km/h 15mph /  24.1km/h 67% 0in /  0.0mm CLR
19:24 69.1 °F /  20.6 °C 58.1 °F /  14.5 °C 29.8in /  1009.9hPa NE 8.5mph /  13.7km/h 17.5mph /  28.2km/h 68% 0in /  0.0mm CLR
19:29 68.7 °F /  20.4 °C 57.7 °F /  14.3 °C 29.8in /  1009.9hPa NNE 10mph /  16.1km/h 11.8mph /  19.0km/h 68% 0in /  0.0mm CLR
19:34 68.7 °F /  20.4 °C 58.1 °F /  14.5 °C 29.8in /  1010.0hPa NNE 10mph /  16.1km/h 13.8mph /  22.2km/h 69% 0in /  0.0mm CLR
19:39 68.5 °F /  20.3 °C 57.9 °F /  14.4 °C 29.8in /  1010.0hPa ENE 8.5mph /  13.7km/h 15mph /  24.1km/h 69% 0in /  0.0mm CLR
19:44 68.5 °F /  20.3 °C 58.5 °F /  14.7 °C 29.8in /  1010.0hPa NE 8.5mph /  13.7km/h 10.7mph /  17.2km/h 70% 0in /  0.0mm CLR
19:49 68.5 °F /  20.3 °C 58.5 °F /  14.7 °C 29.8in /  1010.0hPa ENE 8.5mph /  13.7km/h 10.4mph /  16.7km/h 70% 0in /  0.0mm CLR
19:54 68.4 °F /  20.2 °C 58.6 °F /  14.8 °C 29.8in /  1010.0hPa NNE 8.5mph /  13.7km/h 11.4mph /  18.3km/h 71% 0in /  0.0mm CLR
19:59 68.4 °F /  20.2 °C 58.6 °F /  14.8 °C 29.8in /  1010.0hPa NE 6.9mph /  11.1km/h 10.4mph /  16.7km/h 71% 0in /  0.0mm CLR
20:04 68.2 °F /  20.1 °C 58.5 °F /  14.7 °C 29.8in /  1010.1hPa ENE 6.9mph /  11.1km/h 9.2mph /  14.8km/h 71% 0in /  0.0mm CLR
20:09 68.2 °F /  20.1 °C 58.8 °F /  14.9 °C 29.8in /  1010.1hPa NNE 7.4mph /  11.9km/h 9.2mph /  14.8km/h 72% 0in /  0.0mm CLR
20:14 68.2 °F /  20.1 °C 58.8 °F /  14.9 °C 29.8in /  1010.1hPa NE 7.4mph /  11.9km/h 10mph /  16.1km/h 72% 0in /  0.0mm CLR
20:19 68.2 °F /  20.1 °C 58.8 °F /  14.9 °C 29.8in /  1010.3hPa NE 6.4mph /  10.3km/h 10.4mph /  16.7km/h 72% 0in /  0.0mm CLR
20:24 67.8 °F /  19.9 °C 58.5 °F /  14.7 °C 29.8in /  1010.3hPa ENE 6.4mph /  10.3km/h 10.4mph /  16.7km/h 72% 0in /  0.0mm CLR
20:29 67.8 °F /  19.9 °C 58.8 °F /  14.9 °C 29.8in /  1010.3hPa NNE 6.4mph /  10.3km/h 11.5mph /  18.5km/h 73% 0in /  0.0mm CLR
20:34 67.8 °F /  19.9 °C 58.8 °F /  14.9 °C 29.8in /  1010.4hPa ENE 6.4mph /  10.3km/h 10.4mph /  16.7km/h 73% 0in /  0.0mm CLR
20:39 67.8 °F /  19.9 °C 58.8 °F /  14.9 °C 29.8in /  1010.4hPa NE 6.9mph /  11.1km/h 9.7mph /  15.6km/h 73% 0in /  0.0mm CLR
20:44 67.6 °F /  19.8 °C 59.2 °F /  15.1 °C 29.8in /  1010.4hPa NE 6.9mph /  11.1km/h 10.4mph /  16.7km/h 74% 0in /  0.0mm CLR
20:49 67.5 °F /  19.7 °C 59.4 °F /  15.2 °C 29.8in /  1010.6hPa NE 7.6mph /  12.2km/h 10.4mph /  16.7km/h 75% 0in /  0.0mm CLR
20:54 67.5 °F /  19.7 °C 59.4 °F /  15.2 °C 29.8in /  1010.6hPa NE 7.6mph /  12.2km/h 12.7mph /  20.4km/h 75% 0in /  0.0mm CLR
20:59 67.3 °F /  19.6 °C 59.2 °F /  15.1 °C 29.8in /  1010.6hPa NE 7.4mph /  11.9km/h 12.7mph /  20.4km/h 75% 0in /  0.0mm CLR
21:04 67.3 °F /  19.6 °C 59.2 °F /  15.1 °C 29.9in /  1010.8hPa NNE 7.4mph /  11.9km/h 13.8mph /  22.2km/h 75% 0in /  0.0mm CLR
21:09 66.9 °F /  19.4 °C 59.2 °F /  15.1 °C 29.9in /  1010.8hPa NE 8.1mph /  13.0km/h 11.5mph /  18.5km/h 76% 0in /  0.0mm CLR
21:14 66.9 °F /  19.4 °C 59.2 °F /  15.1 °C 29.9in /  1010.8hPa NE 8.1mph /  13.0km/h 10.4mph /  16.7km/h 76% 0in /  0.0mm CLR
21:19 66.9 °F /  19.4 °C 59.2 °F /  15.1 °C 29.9in /  1010.8hPa ENE 8.1mph /  13.0km/h 10.4mph /  16.7km/h 76% 0in /  0.0mm CLR
21:24 66.7 °F /  19.3 °C 58.8 °F /  14.9 °C 29.9in /  1010.8hPa NNE 8.1mph /  13.0km/h 12.7mph /  20.4km/h 76% 0in /  0.0mm CLR
21:29 66.7 °F /  19.3 °C 58.8 °F /  14.9 °C 29.9in /  1010.8hPa NE 6.9mph /  11.1km/h 11.5mph /  18.5km/h 76% 0in /  0.0mm CLR
21:34 66.6 °F /  19.2 °C 58.8 °F /  14.9 °C 29.9in /  1010.8hPa ENE 6.9mph /  11.1km/h 9.2mph /  14.8km/h 76% 0in /  0.0mm CLR
21:39 66.6 °F /  19.2 °C 58.8 °F /  14.9 °C 29.9in /  1010.8hPa NE 6.4mph /  10.3km/h 9.2mph /  14.8km/h 76% 0in /  0.0mm CLR
21:44 66.4 °F /  19.1 °C 58.6 °F /  14.8 °C 29.9in /  1010.8hPa NNE 6.4mph /  10.3km/h 7.4mph /  11.9km/h 76% 0in /  0.0mm CLR
21:49 66.4 °F /  19.1 °C 58.8 °F /  14.9 °C 29.9in /  1010.9hPa NE 5.4mph /  8.7km/h 6.9mph /  11.1km/h 77% 0in /  0.0mm CLR
21:54 66 °F /  18.9 °C 58.6 °F /  14.8 °C 29.9in /  1010.9hPa NE 5.4mph /  8.7km/h 9.2mph /  14.8km/h 77% 0in /  0.0mm CLR
21:59 66 °F /  18.9 °C 59 °F /  15.0 °C 29.9in /  1010.9hPa NE 6.2mph /  10.0km/h 8.1mph /  13.0km/h 78% 0in /  0.0mm CLR
22:04 65.8 °F /  18.8 °C 58.8 °F /  14.9 °C 29.9in /  1011.2hPa ENE 6.2mph /  10.0km/h 6.9mph /  11.1km/h 78% 0in /  0.0mm CLR
22:09 65.7 °F /  18.7 °C 59 °F /  15.0 °C 29.9in /  1011.2hPa NNE 5.4mph /  8.7km/h 8.1mph /  13.0km/h 79% 0in /  0.0mm CLR
22:14 65.7 °F /  18.7 °C 59 °F /  15.0 °C 29.9in /  1011.2hPa NNE 5.4mph /  8.7km/h 6.9mph /  11.1km/h 79% 0in /  0.0mm CLR
22:19 65.5 °F /  18.6 °C 58.8 °F /  14.9 °C 29.9in /  1011.3hPa NE 5.9mph /  9.5km/h 8.1mph /  13.0km/h 79% 0in /  0.0mm CLR
22:24 65.5 °F /  18.6 °C 58.8 °F /  14.9 °C 29.9in /  1011.3hPa NNE 5.9mph /  9.5km/h 6.9mph /  11.1km/h 79% 0in /  0.0mm CLR
22:29 65.5 °F /  18.6 °C 59.2 °F /  15.1 °C 29.9in /  1011.3hPa NE 4.7mph /  7.6km/h 5.9mph /  9.5km/h 80% 0in /  0.0mm CLR
22:34 65.5 °F /  18.6 °C 59.2 °F /  15.1 °C 29.9in /  1011.7hPa NE 4.7mph /  7.6km/h 8.1mph /  13.0km/h 80% 0in /  0.0mm CLR
22:39 65.3 °F /  18.5 °C 59 °F /  15.0 °C 29.9in /  1011.7hPa NE 4.3mph /  6.9km/h 6.9mph /  11.1km/h 80% 0in /  0.0mm CLR
22:44 65.3 °F /  18.5 °C 59 °F /  15.0 °C 29.9in /  1011.7hPa NNE 4.3mph /  6.9km/h 8.1mph /  13.0km/h 80% 0in /  0.0mm CLR
22:49 65.1 °F /  18.4 °C 59.2 °F /  15.1 °C 29.9in /  1011.8hPa NE 5.4mph /  8.7km/h 9.2mph /  14.8km/h 81% 0in /  0.0mm CLR
22:54 64.9 °F /  18.3 °C 59 °F /  15.0 °C 29.9in /  1011.8hPa NE 5.4mph /  8.7km/h 7.4mph /  11.9km/h 81% 0in /  0.0mm CLR
22:59 64.9 °F /  18.3 °C 59 °F /  15.0 °C 29.9in /  1011.8hPa NNE 5.4mph /  8.7km/h 6.2mph /  10.0km/h 81% 0in /  0.0mm CLR
23:04 64.9 °F /  18.3 °C 59.4 °F /  15.2 °C 29.9in /  1012.0hPa NNE 5.4mph /  8.7km/h 9.2mph /  14.8km/h 82% 0in /  0.0mm CLR
23:09 64.9 °F /  18.3 °C 59.4 °F /  15.2 °C 29.9in /  1012.0hPa NE 5.9mph /  9.5km/h 9.2mph /  14.8km/h 82% 0in /  0.0mm CLR
23:14 64.8 °F /  18.2 °C 59.2 °F /  15.1 °C 29.9in /  1012.0hPa NE 5.9mph /  9.5km/h 8.1mph /  13.0km/h 82% 0in /  0.0mm CLR
23:19 64.8 °F /  18.2 °C 59.2 °F /  15.1 °C 29.9in /  1012.1hPa NNE 6.2mph /  10.0km/h 8.1mph /  13.0km/h 82% 0in /  0.0mm CLR
23:24 64.8 °F /  18.2 °C 59.5 °F /  15.3 °C 29.9in /  1012.1hPa NNE 6.2mph /  10.0km/h 10.4mph /  16.7km/h 83% 0in /  0.0mm CLR
23:29 64.8 °F /  18.2 °C 59.5 °F /  15.3 °C 29.9in /  1012.1hPa NNE 6.9mph /  11.1km/h 9.2mph /  14.8km/h 83% 0in /  0.0mm CLR
23:34 64.8 °F /  18.2 °C 59.5 °F /  15.3 °C 29.9in /  1012.1hPa ENE 6.9mph /  11.1km/h 6.9mph /  11.1km/h 83% 0in /  0.0mm CLR
23:39 64.6 °F /  18.1 °C 59.4 °F /  15.2 °C 29.9in /  1012.1hPa NE 5.9mph /  9.5km/h 8.1mph /  13.0km/h 83% 0in /  0.0mm CLR
23:44 64.6 °F /  18.1 °C 59.4 °F /  15.2 °C 29.9in /  1012.1hPa NE 5.9mph /  9.5km/h 8.1mph /  13.0km/h 83% 0in /  0.0mm CLR
23:49 64.8 °F /  18.2 °C 59.5 °F /  15.3 °C 29.9in /  1012.2hPa NE 5.4mph /  8.7km/h 9.2mph /  14.8km/h 83% 0in /  0.0mm CLR
23:54 64.8 °F /  18.2 °C 59.2 °F /  15.1 °C 29.9in /  1012.2hPa NE 5.4mph /  8.7km/h 6.9mph /  11.1km/h 82% 0in /  0.0mm CLR
23:59 64.8 °F /  18.2 °C 59.5 °F /  15.3 °C 29.9in /  1012.2hPa North 5.4mph /  8.7km/h 8.1mph /  13.0km/h 83% 0in /  0.0mm CLR
Murcia-Puente Tocinos, España
Compliments of Weather Underground - 2.75 mb

La estación de MeteoMurcia.com, publica sus datos en los siguientes proyectos:

Weather Underground PWS IMURCIAP2 Meteoclimatic www.awekas.at

W3Counter
Web Analytics